Time;durP1;ratioP1;P1;durP2;ratioP2;P2;SDS_P1;SDS_P2;PMS_P1;PMS_P2;Temp;Humidity;BMP_temperature;BMP_pressure;BME280_temperature;BME280_humidity;BME280_pressure;Samples;Min_cycle;Max_cycle;Signal;HPM_P1;HPM_P2
2023/01/08 00:02:13;;;;;;;1.85;1.17;;;;;;;8.70;100.00;100209.47;6246828;28;20428;-65
2023/01/08 00:05:15;;;;;;;1.48;1.20;;;;;;;8.67;100.00;100210.47;6247423;28;20060;-66
2023/01/08 00:08:16;;;;;;;6.15;1.90;;;;;;;8.71;100.00;100208.53;6247498;28;20060;-65
2023/01/08 00:11:18;;;;;;;1.92;1.20;;;;;;;8.74;100.00;100206.59;6247327;28;20049;-65
2023/01/08 00:14:20;;;;;;;1.83;1.30;;;;;;;8.70;100.00;100209.47;6247328;28;20049;-65
2023/01/08 00:17:22;;;;;;;1.88;1.13;;;;;;;8.68;100.00;100209.56;6247533;28;20053;-65
2023/01/08 00:20:23;;;;;;;4.35;1.77;;;;;;;8.68;100.00;100221.81;6246981;28;20080;-66
2023/01/08 00:23:25;;;;;;;2.78;1.30;;;;;;;8.71;100.00;100222.47;6246980;28;20048;-65
2023/01/08 00:26:26;;;;;;;1.55;1.10;;;;;;;8.78;100.00;100210.75;6246897;28;20049;-65
2023/01/08 00:29:29;;;;;;;2.88;1.50;;;;;;;8.77;100.00;100185.50;6246844;28;20051;-65
2023/01/08 00:32:30;;;;;;;2.40;1.42;;;;;;;8.77;100.00;100192.50;6246789;28;20053;-65
2023/01/08 00:35:31;;;;;;;3.92;1.80;;;;;;;8.73;100.00;100204.06;6246876;28;20045;-64
2023/01/08 00:38:33;;;;;;;1.17;1.02;;;;;;;8.68;100.00;100208.72;6246864;28;20079;-65
2023/01/08 00:41:34;;;;;;;4.32;1.40;;;;;;;8.61;100.00;100206.41;6246444;28;20052;-65
2023/01/08 00:44:37;;;;;;;2.22;1.13;;;;;;;8.67;100.00;100205.22;6246514;28;20513;-65
2023/01/08 00:47:38;;;;;;;2.88;1.33;;;;;;;8.68;100.00;100211.34;6246883;28;20057;-65
2023/01/08 00:50:39;;;;;;;1.65;1.23;;;;;;;8.75;100.00;100205.66;6246999;28;20045;-65
2023/01/08 00:53:40;;;;;;;2.53;1.33;;;;;;;8.77;100.00;100205.59;6246678;28;20501;-64
2023/01/08 00:56:42;;;;;;;2.33;1.20;;;;;;;8.82;100.00;100193.09;6246980;28;20056;-65
2023/01/08 00:59:44;;;;;;;2.90;1.10;;;;;;;8.85;100.00;100193.75;6246566;28;20053;-65
2023/01/08 01:02:46;;;;;;;2.13;1.38;;;;;;;8.87;100.00;100199.75;6246757;28;20049;-65
2023/01/08 01:05:48;;;;;;;1.90;1.30;;;;;;;8.87;100.00;100193.69;6246323;28;20497;-65
2023/01/08 01:08:49;;;;;;;2.30;1.50;;;;;;;8.83;100.00;100181.69;6246467;28;20131;-65
2023/01/08 01:11:51;;;;;;;2.63;1.50;;;;;;;8.85;100.00;100178.03;6246145;28;20046;-65
2023/01/08 01:14:53;;;;;;;6.05;1.70;;;;;;;8.87;100.00;100173.56;6250647;28;20046;-65
2023/01/08 01:17:55;;;;;;;2.30;1.30;;;;;;;8.87;100.00;100162.25;6251566;28;20056;-65
2023/01/08 01:20:56;;;;;;;1.30;1.20;;;;;;;8.86;100.00;100168.41;6251082;28;20516;-65
2023/01/08 01:24:00;;;;;;;3.67;1.48;;;;;;;8.83;100.00;100168.56;6251031;28;20046;-65
2023/01/08 01:27:01;;;;;;;2.75;1.17;;;;;;;8.82;100.00;100162.50;6251150;28;20060;-65
2023/01/08 01:30:05;;;;;;;1.83;1.10;;;;;;;8.81;100.00;100159.94;6250861;28;20049;-65
2023/01/08 01:33:06;;;;;;;3.20;1.35;;;;;;;8.82;100.00;100154.63;6251063;28;20050;-65
2023/01/08 01:36:11;;;;;;;1.77;1.10;;;;;;;8.86;100.00;100157.94;6250704;28;20049;-65
2023/01/08 01:39:12;;;;;;;2.03;1.38;;;;;;;8.88;100.00;100163.91;6251109;28;20052;-65
2023/01/08 01:42:38;;;;;;;1.10;0.93;;;;;;;8.87;100.00;100168.31;6250388;28;20508;-65
2023/01/08 01:45:37;;;;;;;2.25;1.38;;;;;;;8.88;100.00;100161.31;6250593;28;20417;-65
2023/01/08 01:48:39;;;;;;;2.72;0.90;;;;;;;8.88;100.00;100171.78;6250754;28;20057;-65
2023/01/08 01:51:46;;;;;;;2.83;1.15;;;;;;;8.88;100.00;100159.53;6263659;22;20029;-72
2023/01/08 01:54:48;;;;;;;1.90;1.10;;;;;;;8.93;100.00;100155.81;6250450;28;20056;-70
2023/01/08 01:57:54;;;;;;;1.60;1.27;;;;;;;8.95;100.00;100154.81;6234254;28;20057;-70
2023/01/08 02:01:01;;;;;;;1.70;1.17;;;;;;;8.96;100.00;100153.03;6226350;28;20054;-70
2023/01/08 02:04:03;;;;;;;2.75;1.52;;;;;;;8.97;100.00;100149.47;6225524;28;20053;-71
2023/01/08 02:07:11;;;;;;;1.50;1.00;;;;;;;8.98;100.00;100149.38;6225889;28;20520;-70
2023/01/08 02:10:18;;;;;;;2.38;1.30;;;;;;;8.93;100.00;100151.41;6225666;28;20049;-70
2023/01/08 02:13:26;;;;;;;1.48;1.05;;;;;;;8.90;100.00;100143.72;6225642;28;20041;-70
2023/01/08 02:16:39;;;;;;;1.83;1.33;;;;;;;8.89;100.00;100153.34;6225458;28;20050;-70
2023/01/08 02:19:45;;;;;;;3.20;1.48;;;;;;;8.94;100.00;100144.38;6225689;28;20057;-70
2023/01/08 02:23:12;;;;;;;2.28;1.30;;;;;;;8.95;100.00;100153.94;6225180;28;20046;-70
2023/01/08 02:26:22;;;;;;;2.47;0.93;;;;;;;8.94;100.00;100144.38;6225315;28;20053;-70
2023/01/08 02:29:27;;;;;;;1.60;1.20;;;;;;;8.92;100.00;100148.88;6225110;28;20057;-70
2023/01/08 02:32:33;;;;;;;2.70;1.38;;;;;;;8.93;100.00;100142.69;6225070;28;20050;-70
2023/01/08 02:35:40;;;;;;;2.90;1.23;;;;;;;8.95;100.00;100141.69;6225002;28;20053;-70
2023/01/08 02:38:50;;;;;;;2.13;1.40;;;;;;;8.94;100.00;100132.13;6225094;28;20061;-69
2023/01/08 02:42:02;;;;;;;1.30;1.05;;;;;;;8.93;100.00;100137.47;6224653;28;20413;-70
2023/01/08 02:45:11;;;;;;;1.42;1.30;;;;;;;8.92;100.00;100135.78;6225068;28;20058;-70
2023/01/08 02:48:17;;;;;;;4.90;1.90;;;;;;;8.92;100.00;100135.78;6224761;28;20049;-70
2023/01/08 02:51:25;;;;;;;1.90;1.40;;;;;;;8.88;100.00;100137.72;6224747;28;20065;-70
2023/01/08 02:54:31;;;;;;;3.45;1.50;;;;;;;8.76;100.00;100123.53;6224333;28;20042;-71
2023/01/08 02:57:34;;;;;;;1.48;0.93;;;;;;;8.72;100.00;100122.03;6224763;28;20053;-70
2023/01/08 03:00:37;;;;;;;2.70;1.38;;;;;;;8.69;100.00;100118.72;6224344;28;20421;-70
2023/01/08 03:03:41;;;;;;;2.85;1.40;;;;;;;8.66;100.00;100113.66;6224391;28;20050;-71
2023/01/08 03:06:44;;;;;;;2.92;1.33;;;;;;;8.69;100.00;100124.81;6224414;28;20050;-70
2023/01/08 03:09:45;;;;;;;2.47;1.40;;;;;;;8.68;100.00;100136.22;6224280;28;20042;-71
2023/01/08 03:12:53;;;;;;;3.30;1.30;;;;;;;8.66;100.00;100140.69;6224055;28;20091;-70
2023/01/08 03:15:58;;;;;;;1.13;1.00;;;;;;;8.66;100.00;100143.31;6224238;28;20046;-70
2023/01/08 03:19:04;;;;;;;1.90;1.35;;;;;;;8.68;100.00;100143.25;6224416;28;20417;-70
2023/01/08 03:22:08;;;;;;;2.20;1.40;;;;;;;8.69;100.00;100137.91;6223990;28;20056;-70
2023/01/08 03:25:10;;;;;;;1.65;1.33;;;;;;;8.73;100.00;100131.56;6223681;28;20053;-69
2023/01/08 03:28:17;;;;;;;1.23;1.02;;;;;;;8.78;100.00;100141.78;6223965;28;20497;-70
2023/01/08 03:31:19;;;;;;;1.40;0.95;;;;;;;8.80;100.00;100138.13;6224286;28;20061;-70
2023/01/08 03:34:24;;;;;;;2.10;1.40;;;;;;;8.86;100.00;100134.34;6223399;28;20050;-70
2023/01/08 03:37:29;;;;;;;5.88;1.63;;;;;;;8.88;100.00;100125.47;6223277;28;20050;-70
2023/01/08 03:40:36;;;;;;;2.20;1.25;;;;;;;8.95;100.00;100123.34;6223219;28;20053;-70
2023/01/08 03:43:39;;;;;;;2.00;1.20;;;;;;;8.97;100.00;100118.03;6223474;28;20053;-69
2023/01/08 03:46:47;;;;;;;1.70;0.98;;;;;;;9.01;100.00;100117.75;6223862;28;20060;-70
2023/01/08 03:49:51;;;;;;;1.70;0.90;;;;;;;9.05;100.00;100114.03;6222213;28;20060;-70
2023/01/08 03:52:52;;;;;;;2.05;0.90;;;;;;;9.11;100.00;100110.22;6223508;28;20045;-70
2023/01/08 03:55:55;;;;;;;1.90;1.02;;;;;;;9.11;100.00;100111.03;6223033;28;20406;-71
2023/01/08 03:58:57;;;;;;;1.45;1.30;;;;;;;9.17;100.00;100098.53;6223284;28;20058;-70
2023/01/08 04:01:59;;;;;;;1.73;0.90;;;;;;;9.15;100.00;100098.63;6222880;28;20403;-70
2023/01/08 04:05:00;;;;;;;1.75;1.00;;;;;;;9.18;100.00;100095.00;6223071;28;20060;-70
2023/01/08 04:08:01;;;;;;;4.35;1.10;;;;;;;9.16;100.00;100089.81;6223127;28;20060;-70
2023/01/08 04:11:02;;;;;;;1.63;1.08;;;;;;;9.18;100.00;100084.50;6222856;28;20049;-70
2023/01/08 04:14:05;;;;;;;1.92;1.10;;;;;;;9.22;100.00;100088.59;6222614;28;20053;-70
2023/01/08 04:17:06;;;;;;;1.90;1.10;;;;;;;9.17;100.00;100077.53;6223130;28;20053;-70
2023/01/08 04:20:08;;;;;;;2.72;0.88;;;;;;;9.17;100.00;100088.03;6222531;28;20054;-70
2023/01/08 04:23:10;;;;;;;2.38;1.10;;;;;;;9.13;100.00;100079.53;6222857;28;20045;-69
2023/01/08 04:26:11;;;;;;;2.63;1.05;;;;;;;9.12;100.00;100083.06;6222645;28;20498;-70
2023/01/08 04:29:14;;;;;;;1.50;1.15;;;;;;;9.04;100.00;100074.81;6222530;28;20053;-70
2023/01/08 04:32:15;;;;;;;1.08;0.98;;;;;;;8.97;100.00;100070.84;6222508;28;20057;-71
2023/01/08 04:35:16;;;;;;;4.97;1.20;;;;;;;8.89;100.00;100076.53;6222326;28;20508;-70
2023/01/08 04:38:18;;;;;;;2.83;1.30;;;;;;;8.87;100.00;100074.00;6222585;28;20053;-70
2023/01/08 04:41:19;;;;;;;2.20;0.98;;;;;;;8.84;100.00;100073.31;6222207;28;20057;-70
2023/01/08 04:44:22;;;;;;;3.22;1.30;;;;;;;8.78;100.00;100061.41;6222318;28;20057;-70
2023/01/08 04:47:23;;;;;;;1.67;1.17;;;;;;;8.75;100.00;100056.34;6221442;28;20053;-70
2023/01/08 04:50:25;;;;;;;2.70;1.23;;;;;;;8.69;100.00;100056.69;6222342;28;20084;-69
2023/01/08 04:53:26;;;;;;;1.75;1.23;;;;;;;8.64;100.00;100062.19;6222305;28;20049;-70
2023/01/08 04:56:28;;;;;;;1.77;1.40;;;;;;;8.61;100.00;100058.91;6222282;28;20060;-70
2023/01/08 04:59:30;;;;;;;3.88;1.50;;;;;;;8.59;100.00;100053.75;6221924;28;20056;-69
2023/01/08 05:02:32;;;;;;;1.33;0.90;;;;;;;8.57;100.00;100046.91;6222396;28;20046;-69
2023/01/08 05:05:34;;;;;;;2.00;0.90;;;;;;;8.57;100.00;100039.88;6221959;28;20421;-70
2023/01/08 05:08:35;;;;;;;2.30;1.13;;;;;;;8.57;100.00;100044.28;6222048;28;20530;-70
2023/01/08 05:11:37;;;;;;;1.63;1.00;;;;;;;8.56;100.00;100043.44;6222150;28;20057;-72
2023/01/08 05:14:39;;;;;;;1.70;1.30;;;;;;;8.52;100.00;100041.09;6221942;28;20111;-70
2023/01/08 05:17:41;;;;;;;4.68;1.50;;;;;;;8.49;100.00;100042.09;6222070;28;20050;-69
2023/01/08 05:20:42;;;;;;;1.92;1.15;;;;;;;8.45;100.00;100037.97;6221959;28;20068;-70
2023/01/08 05:23:46;;;;;;;1.85;1.23;;;;;;;8.43;100.00;100031.13;6221811;28;20049;-70
2023/01/08 05:26:48;;;;;;;2.70;1.52;;;;;;;8.43;100.00;100034.59;6222103;28;20054;-72
2023/01/08 05:29:50;;;;;;;3.85;1.20;;;;;;;8.44;100.00;100035.44;6221901;28;20046;-70
2023/01/08 05:32:52;;;;;;;3.90;1.05;;;;;;;8.42;100.00;100032.91;6221993;28;20084;-70
2023/01/08 05:35:53;;;;;;;1.20;1.08;;;;;;;8.46;100.00;100029.19;6221624;28;20509;-70
2023/01/08 05:38:55;;;;;;;3.38;1.50;;;;;;;8.42;100.00;100032.06;6221756;28;20060;-69
2023/01/08 05:41:56;;;;;;;2.38;1.25;;;;;;;8.43;100.00;100031.13;6221400;28;20045;-70
2023/01/08 05:44:59;;;;;;;1.75;1.25;;;;;;;8.41;100.00;100035.63;6221435;28;20049;-70
2023/01/08 05:48:00;;;;;;;2.85;1.20;;;;;;;8.41;100.00;100031.22;6221539;28;20065;-70
2023/01/08 05:51:02;;;;;;;3.55;1.63;;;;;;;8.41;100.00;100031.22;6221804;28;20060;-70
2023/01/08 05:54:03;;;;;;;2.67;1.50;;;;;;;8.41;100.00;100033.84;6221228;28;20401;-70
2023/01/08 05:57:04;;;;;;;1.98;1.13;;;;;;;8.42;100.00;100032.06;6221713;28;20053;-70
2023/01/08 06:00:09;;;;;;;2.20;1.20;;;;;;;8.44;100.00;100025.78;6224095;28;20421;-70
2023/01/08 06:03:11;;;;;;;2.08;1.25;;;;;;;8.48;100.00;100022.09;6226226;28;20042;-70
2023/01/08 06:06:12;;;;;;;3.42;1.48;;;;;;;8.47;100.00;100027.41;6225985;28;20057;-70
2023/01/08 06:09:14;;;;;;;5.40;1.42;;;;;;;8.47;100.00;100023.03;6225965;28;20052;-70
2023/01/08 06:12:15;;;;;;;2.85;1.63;;;;;;;8.48;100.00;100016.00;6225750;28;20433;-70
2023/01/08 06:15:18;;;;;;;2.15;1.55;;;;;;;8.48;100.00;100016.84;6225458;28;20056;-70
2023/01/08 06:18:20;;;;;;;2.33;1.40;;;;;;;8.51;100.00;100016.69;6225767;28;20050;-70
2023/01/08 06:21:21;;;;;;;1.60;1.27;;;;;;;8.52;100.00;100012.28;6225142;28;20046;-70
2023/01/08 06:24:22;;;;;;;3.05;1.45;;;;;;;8.53;100.00;100003.50;6225508;28;20057;-70
2023/01/08 06:27:24;;;;;;;3.03;1.70;;;;;;;8.55;100.00;100002.50;6225471;28;20054;-70
2023/01/08 06:30:26;;;;;;;2.35;1.40;;;;;;;8.52;100.00;100001.81;6225481;28;20050;-70
2023/01/08 06:33:28;;;;;;;1.95;1.40;;;;;;;8.57;100.00;100003.22;6225123;28;20410;-71
2023/01/08 06:36:29;;;;;;;2.00;1.25;;;;;;;8.59;100.00;100003.16;6225020;28;20052;-72
2023/01/08 06:39:30;;;;;;;1.92;1.33;;;;;;;8.59;100.00;99996.16;6225149;28;20054;-70
2023/01/08 06:42:32;;;;;;;1.35;1.10;;;;;;;8.58;100.00;99998.84;6224795;28;20050;-70
2023/01/08 06:45:34;;;;;;;7.20;1.83;;;;;;;8.59;100.00;99996.16;6224978;28;20057;-70
2023/01/08 06:48:36;;;;;;;2.67;1.33;;;;;;;8.59;100.00;99997.94;6224817;28;20422;-70
2023/01/08 06:51:38;;;;;;;4.05;1.88;;;;;;;8.61;100.00;100003.91;6224501;28;20057;-70
2023/01/08 06:54:39;;;;;;;1.63;1.02;;;;;;;8.61;100.00;99998.66;6224819;28;20046;-72
2023/01/08 06:57:40;;;;;;;2.08;1.05;;;;;;;8.63;100.00;99995.03;6238555;28;20057;-70
2023/01/08 07:00:43;;;;;;;2.97;1.23;;;;;;;8.69;100.00;99995.63;6248481;28;20056;-69
2023/01/08 07:03:45;;;;;;;2.65;1.50;;;;;;;8.66;100.00;100006.25;6248495;28;20504;-72
2023/01/08 07:06:47;;;;;;;3.45;1.30;;;;;;;8.64;100.00;100001.97;6248470;28;20050;-70
2023/01/08 07:09:48;;;;;;;4.68;1.40;;;;;;;8.65;100.00;100000.19;6248118;28;20049;-70
2023/01/08 07:12:49;;;;;;;2.55;1.45;;;;;;;8.69;100.00;100004.31;6247656;28;20041;-70
2023/01/08 07:15:52;;;;;;;1.70;1.33;;;;;;;8.72;100.00;99998.91;6248376;28;20057;-70
2023/01/08 07:18:53;;;;;;;1.63;1.08;;;;;;;8.71;100.00;99994.59;6246216;28;20626;-69
2023/01/08 07:21:55;;;;;;;1.65;1.13;;;;;;;8.69;100.00;99999.06;6239012;28;20053;-70
2023/01/08 07:24:56;;;;;;;4.00;1.33;;;;;;;8.72;100.00;99996.28;6247679;28;20042;-70
2023/01/08 07:28:00;;;;;;;2.80;1.40;;;;;;;8.74;100.00;99997.03;6248180;28;20053;-70
2023/01/08 07:31:06;;;;;;;4.82;1.30;;;;;;;8.77;100.00;99998.66;6248351;28;20060;-70
2023/01/08 07:34:08;;;;;;;1.67;0.98;;;;;;;8.77;100.00;100004.72;6248054;28;20049;-70
2023/01/08 07:37:09;;;;;;;3.05;1.35;;;;;;;8.78;100.00;99995.09;6248343;28;20049;-70
2023/01/08 07:40:12;;;;;;;1.08;1.00;;;;;;;8.78;100.00;99995.09;6248135;28;20060;-70
2023/01/08 07:43:13;;;;;;;4.70;1.42;;;;;;;8.78;100.00;99997.72;6248455;28;20045;-70
2023/01/08 07:46:16;;;;;;;1.60;1.13;;;;;;;8.78;100.00;99995.94;6247948;28;20072;-72
2023/01/08 07:49:17;;;;;;;2.17;0.85;;;;;;;8.81;100.00;100001.00;6248170;28;20053;-72
2023/01/08 07:52:19;;;;;;;1.83;0.85;;;;;;;8.81;100.00;99995.75;6247837;28;20072;-70
2023/01/08 07:55:20;;;;;;;1.08;0.98;;;;;;;8.80;100.00;99996.66;6247803;28;20056;-70
2023/01/08 07:58:21;;;;;;;2.38;1.08;;;;;;;8.80;100.00;100003.69;6247963;28;20064;-70
2023/01/08 08:01:25;;;;;;;5.47;1.20;;;;;;;8.92;100.00;99989.88;6247526;28;20512;-71
2023/01/08 08:04:26;;;;;;;1.20;0.75;;;;;;;8.90;100.00;99989.09;6247516;28;20053;-70
2023/01/08 08:07:30;;;;;;;1.33;1.20;;;;;;;8.95;100.00;99986.22;6247569;28;20073;-70
2023/01/08 08:10:31;;;;;;;0.90;0.70;;;;;;;8.87;100.00;99987.53;6247574;28;20060;-70
2023/01/08 08:13:32;;;;;;;1.52;0.88;;;;;;;8.94;100.00;99982.75;6247322;28;20052;-70
2023/01/08 08:16:35;;;;;;;1.92;0.90;;;;;;;8.97;100.00;99985.22;6247445;28;20065;-70
2023/01/08 08:19:36;;;;;;;1.40;0.93;;;;;;;8.99;100.00;99987.72;6247163;28;20490;-70
2023/01/08 08:22:38;;;;;;;3.60;1.20;;;;;;;8.99;100.00;99987.72;6246886;28;20061;-70
2023/01/08 08:25:40;;;;;;;1.10;0.85;;;;;;;8.95;100.00;99989.72;6247198;28;20049;-70
2023/01/08 08:28:41;;;;;;;1.40;0.98;;;;;;;8.97;100.00;99985.22;6247081;28;20061;-70
2023/01/08 08:31:44;;;;;;;1.02;0.85;;;;;;;8.98;100.00;99991.28;6246905;28;20049;-70
2023/01/08 08:34:45;;;;;;;1.52;1.08;;;;;;;9.01;100.00;99993.75;6246692;28;20049;-71
2023/01/08 08:37:47;;;;;;;1.05;0.70;;;;;;;8.99;100.00;99993.81;6247120;28;20060;-71
2023/01/08 08:40:48;;;;;;;1.52;1.00;;;;;;;9.02;100.00;99982.31;6246752;28;20057;-71
2023/01/08 08:43:50;;;;;;;1.33;1.00;;;;;;;9.01;100.00;99985.88;6246655;28;20041;-70
2023/01/08 08:46:52;;;;;;;0.80;0.63;;;;;;;8.97;100.00;99987.00;6246871;28;20057;-71
2023/01/08 08:49:54;;;;;;;1.30;0.90;;;;;;;8.91;100.00;99979.50;6246694;28;20411;-70
2023/01/08 08:52:58;;;;;;;2.42;0.77;;;;;;;8.85;100.00;99976.28;6246739;28;20057;-70
2023/01/08 08:56:00;;;;;;;1.10;0.77;;;;;;;8.87;100.00;99970.97;6246396;28;20049;-70
2023/01/08 08:59:01;;;;;;;0.90;0.82;;;;;;;8.88;100.00;99967.41;6246638;28;20057;-70
2023/01/08 09:02:04;;;;;;;0.68;0.57;;;;;;;8.86;100.00;99974.53;6246239;28;20057;-70
2023/01/08 09:05:06;;;;;;;0.77;0.77;;;;;;;8.87;100.00;99966.56;6246288;28;20393;-71
2023/01/08 09:08:07;;;;;;;0.65;0.60;;;;;;;8.91;100.00;99963.78;6234204;28;20056;-70
2023/01/08 09:11:08;;;;;;;0.75;0.60;;;;;;;8.89;100.00;99969.09;6235493;28;20050;-70
2023/01/08 09:14:10;;;;;;;1.15;0.80;;;;;;;8.87;100.00;99947.38;6222193;28;20050;-70
2023/01/08 09:17:12;;;;;;;1.00;0.70;;;;;;;8.94;100.00;99960.97;6246343;28;20065;-70
2023/01/08 09:20:14;;;;;;;0.68;0.60;;;;;;;8.97;100.00;99956.38;6245925;28;20398;-70
2023/01/08 09:23:15;;;;;;;0.85;0.80;;;;;;;8.99;100.00;99966.75;6241059;28;20053;-72
2023/01/08 09:26:16;;;;;;;5.88;2.70;;;;;;;9.04;100.00;99973.44;6221599;28;20050;-72
2023/01/08 09:29:18;;;;;;;2.55;0.90;;;;;;;9.01;100.00;99978.84;6221937;28;20050;-72
2023/01/08 09:32:20;;;;;;;0.80;0.63;;;;;;;9.01;100.00;99978.84;6221417;28;20395;-72
2023/01/08 09:35:22;;;;;;;1.13;0.60;;;;;;;9.02;100.00;99979.69;6224839;28;20046;-72
2023/01/08 09:38:23;;;;;;;4.38;0.90;;;;;;;9.04;100.00;99976.06;6226788;28;20516;-72
2023/01/08 09:41:28;;;;;;;1.17;0.77;;;;;;;9.07;100.00;99978.47;6226176;28;20057;-72
2023/01/08 09:44:33;;;;;;;0.57;0.50;;;;;;;9.12;100.00;99986.06;6226313;28;20494;-72
2023/01/08 09:47:40;;;;;;;0.30;0.30;;;;;;;9.15;100.00;99986.75;6226265;28;20493;-72
2023/01/08 09:50:41;;;;;;;1.05;0.85;;;;;;;9.15;100.00;99986.75;6226168;28;20057;-72
2023/01/08 09:53:44;;;;;;;2.47;1.00;;;;;;;9.16;100.00;99990.19;6225671;28;20050;-69
2023/01/08 09:56:45;;;;;;;0.70;0.55;;;;;;;9.17;100.00;99989.25;6226226;28;20049;-69
2023/01/08 09:59:48;;;;;;;0.77;0.60;;;;;;;9.30;100.00;99987.59;6225832;28;20429;-72
2023/01/08 10:02:53;;;;;;;1.30;0.75;;;;;;;9.29;100.00;99982.44;6226370;28;20049;-72
2023/01/08 10:05:54;;;;;;;0.55;0.50;;;;;;;9.26;100.00;99972.97;6225467;28;20413;-69
2023/01/08 10:08:55;;;;;;;1.50;0.80;;;;;;;9.36;100.00;99976.75;6226087;28;20057;-69
2023/01/08 10:12:01;;;;;;;1.05;0.60;;;;;;;9.42;100.00;99965.03;6225483;28;20057;-72
2023/01/08 10:15:05;;;;;;;1.00;0.77;;;;;;;9.42;100.00;99965.03;6235459;28;20056;-72
2023/01/08 10:18:13;;;;;;;1.20;0.63;;;;;;;9.40;100.00;99972.13;6245973;28;20397;-72
2023/01/08 10:21:14;;;;;;;0.82;0.50;;;;;;;9.34;100.00;99965.50;6225026;28;20054;-72
2023/01/08 10:24:16;;;;;;;0.50;0.50;;;;;;;9.30;100.00;99964.00;6248302;28;20046;-72
2023/01/08 10:27:20;;;;;;;0.32;0.32;;;;;;;9.25;100.00;99957.34;6246783;28;20050;-72
2023/01/08 10:30:24;;;;;;;2.00;0.52;;;;;;;9.23;100.00;99954.84;6249475;28;20425;-71
2023/01/08 10:33:31;;;;;;;0.52;0.50;;;;;;;9.14;100.00;99961.47;6249221;28;20520;-72
2023/01/08 10:36:40;;;;;;;2.25;0.50;;;;;;;9.17;100.00;99960.41;6230947;28;20054;-72
2023/01/08 10:39:46;;;;;;;1.63;0.55;;;;;;;9.12;100.00;99954.63;6225066;28;20572;-71
2023/01/08 10:42:48;;;;;;;0.60;0.60;;;;;;;9.12;100.00;99952.84;6248083;28;20049;-71
2023/01/08 10:45:58;;;;;;;2.03;0.50;;;;;;;9.17;100.00;99956.97;6249401;28;20053;-71
2023/01/08 10:49:03;;;;;;;3.00;0.30;;;;;;;9.13;100.00;99958.94;6249734;28;20057;-71
2023/01/08 10:52:05;;;;;;;0.40;0.40;;;;;;;9.14;100.00;99966.72;6249034;28;20053;-71
2023/01/08 10:55:22;;;;;;;0.22;0.22;;;;;;;9.12;100.00;99958.06;6248354;28;20493;-71
2023/01/08 10:58:24;;;;;;;1.85;0.80;;;;;;;9.09;100.00;99957.44;6249008;28;20056;-71
2023/01/08 11:01:28;;;;;;;0.55;0.40;;;;;;;9.07;100.00;99951.44;6247295;28;20486;-71
2023/01/08 11:04:33;;;;;;;1.35;0.57;;;;;;;9.06;100.00;99949.75;6242799;28;20103;-72
2023/01/08 11:07:35;;;;;;;0.20;0.20;;;;;;;9.09;100.00;99954.81;6243599;28;20049;-71
2023/01/08 11:10:37;;;;;;;0.65;0.40;;;;;;;9.15;100.00;99950.03;6245596;28;20052;-72
2023/01/08 11:13:38;;;;;;;0.20;0.20;;;;;;;9.14;100.00;99948.38;6249084;28;20457;-72
2023/01/08 11:16:41;;;;;;;0.10;0.10;;;;;;;9.15;100.00;99955.28;6248715;28;20049;-72
2023/01/08 11:19:44;;;;;;;0.20;0.20;;;;;;;9.19;100.00;99945.47;6248614;28;20054;-72
2023/01/08 11:22:45;;;;;;;0.43;0.43;;;;;;;9.19;100.00;99942.00;6248680;28;20045;-72
2023/01/08 11:25:59;;;;;;;0.68;0.40;;;;;;;9.14;100.00;99937.88;6248342;28;20050;-72
2023/01/08 11:29:07;;;;;;;1.27;0.40;;;;;;;9.19;100.00;99934.13;6248581;28;20049;-72
2023/01/08 11:32:28;;;;;;;1.30;0.50;;;;;;;9.24;100.00;99924.22;6248382;28;20056;-72
2023/01/08 11:35:35;;;;;;;0.65;0.22;;;;;;;9.31;100.00;99920.25;6248234;28;20421;-72
2023/01/08 11:38:37;;;;;;;0.82;0.50;;;;;;;9.24;100.00;99919.81;6248626;28;20045;-72
2023/01/08 11:41:54;;;;;;;1.10;0.60;;;;;;;9.30;100.00;99918.59;6248001;28;20064;-72
2023/01/08 11:45:11;;;;;;;1.52;0.55;;;;;;;9.34;100.00;99912.22;6248125;28;20420;-72
2023/01/08 11:48:24;;;;;;;0.63;0.40;;;;;;;9.43;100.00;99910.81;6248132;28;20061;-72
2023/01/08 11:51:36;;;;;;;0.75;0.50;;;;;;;9.44;100.00;99904.63;6248031;28;20117;-72
2023/01/08 11:55:02;;;;;;;5.13;1.27;;;;;;;9.53;100.00;99909.28;6247733;28;20050;-72
2023/01/08 11:58:21;;;;;;;1.65;0.40;;;;;;;9.51;100.00;99893.66;6243898;28;20060;-72
2023/01/08 12:01:38;;;;;;;0.43;0.28;;;;;;;9.52;100.00;99899.75;6245294;28;20136;-72
2023/01/08 12:04:59;;;;;;;1.17;0.40;;;;;;;9.58;100.00;99899.34;6244523;28;20052;-72
2023/01/08 12:08:05;;;;;;;1.15;0.47;;;;;;;9.71;100.00;99886.31;6241405;28;20045;-72
2023/01/08 12:11:13;;;;;;;0.65;0.40;;;;;;;9.86;100.00;99885.34;6245837;28;20053;-71
2023/01/08 12:14:31;;;;;;;0.97;0.43;;;;;;;9.99;100.00;99881.00;6244683;28;20515;-72
2023/01/08 12:17:46;;;;;;;0.65;0.30;;;;;;;10.06;100.00;99874.38;6243265;28;20277;-72
2023/01/08 12:20:54;;;;;;;0.98;0.40;;;;;;;10.10;100.00;99865.38;6245628;28;20053;-72
2023/01/08 12:24:12;;;;;;;1.48;0.65;;;;;;;10.05;100.00;99862.22;6243553;28;20045;-71
2023/01/08 12:27:23;;;;;;;0.90;0.77;;;;;;;10.11;100.00;99860.97;6243216;28;20489;-72
2023/01/08 12:30:36;;;;;;;1.02;0.57;;;;;;;10.12;100.00;99855.59;6245326;28;20045;-70
2023/01/08 12:33:42;;;;;;;1.08;0.60;;;;;;;10.16;100.00;99854.47;6243997;28;20140;-69
2023/01/08 12:36:47;;;;;;;10.32;1.10;;;;;;;10.21;100.00;99848.06;6245239;28;20428;-70
2023/01/08 12:39:59;;;;;;;1.38;0.73;;;;;;;10.16;100.00;99843.97;6245513;28;20060;-70
2023/01/08 12:43:07;;;;;;;1.45;0.38;;;;;;;10.11;100.00;99851.31;6244597;28;20046;-72
2023/01/08 12:46:15;;;;;;;1.92;0.40;;;;;;;10.04;100.00;99842.16;6246178;28;20046;-72
2023/01/08 12:49:24;;;;;;;2.83;0.33;;;;;;;9.94;100.00;99835.81;6246858;28;20508;-72
2023/01/08 12:52:35;;;;;;;0.85;0.68;;;;;;;9.92;100.00;99835.09;6246703;28;20052;-72
2023/01/08 12:55:44;;;;;;;3.38;0.60;;;;;;;9.85;100.00;99823.28;6247119;28;20041;-72
2023/01/08 12:58:57;;;;;;;;;;;;;;;9.81;100.00;99821.78;6247224;28;20489;-72
2023/01/08 13:02:07;;;;;;;1.45;0.68;;;;;;;9.78;100.00;99816.78;6246336;28;20284;-72
2023/01/08 13:05:28;;;;;;;3.20;0.63;;;;;;;9.76;100.00;99813.38;6245953;28;20409;-72
2023/01/08 13:08:33;;;;;;;3.83;0.70;;;;;;;9.72;100.00;99804.91;6246958;28;20050;-72
2023/01/08 13:11:37;;;;;;;1.75;0.65;;;;;;;9.76;100.00;99813.38;6251372;28;20053;-72
2023/01/08 13:14:43;;;;;;;1.23;0.70;;;;;;;9.73;100.00;99803.94;6251475;28;20064;-72
2023/01/08 13:17:48;;;;;;;1.75;0.57;;;;;;;9.76;100.00;99803.72;6251867;28;20052;-72
2023/01/08 13:20:56;;;;;;;8.68;1.10;;;;;;;9.78;100.00;99798.41;6251239;28;20053;-72
2023/01/08 13:24:03;;;;;;;1.80;0.60;;;;;;;9.81;100.00;99791.19;6251142;28;20056;-72
2023/01/08 13:27:27;;;;;;;1.10;0.68;;;;;;;9.80;100.00;99791.25;6251395;28;20046;-72
2023/01/08 13:30:35;;;;;;;2.63;0.50;;;;;;;9.72;100.00;99789.16;6250945;28;20053;-72
2023/01/08 13:33:40;;;;;;;5.20;0.90;;;;;;;9.69;100.00;99781.47;6251418;28;20049;-72
2023/01/08 13:36:41;;;;;;;1.50;0.55;;;;;;;9.63;100.00;99782.72;6250991;28;20045;-72
2023/01/08 13:39:43;;;;;;;4.10;0.70;;;;;;;9.60;100.00;99771.59;6251051;28;20049;-72
2023/01/08 13:42:45;;;;;;;4.47;0.80;;;;;;;9.57;100.00;99761.28;6250892;28;20049;-72
2023/01/08 13:45:54;;;;;;;3.63;0.57;;;;;;;9.55;100.00;99766.63;6250761;28;20057;-72
2023/01/08 13:49:01;;;;;;;3.25;0.90;;;;;;;9.54;100.00;99758.88;6250879;28;20390;-71
2023/01/08 13:52:02;;;;;;;2.20;0.52;;;;;;;9.54;100.00;99753.63;6250617;28;20053;-71
2023/01/08 13:55:11;;;;;;;3.25;0.73;;;;;;;9.49;100.00;99751.28;6249554;28;20147;-72
2023/01/08 13:58:18;;;;;;;1.90;0.63;;;;;;;9.54;100.00;99748.38;6250077;28;20052;-71
2023/01/08 14:01:20;;;;;;;4.85;0.77;;;;;;;9.52;100.00;99745.00;6250072;28;20648;-71
2023/01/08 14:04:23;;;;;;;7.88;0.88;;;;;;;9.55;100.00;99744.81;6250487;28;20053;-72
2023/01/08 14:07:26;;;;;;;0.85;0.50;;;;;;;9.53;100.00;99744.06;6250313;28;20049;-72
2023/01/08 14:10:28;;;;;;;1.95;0.73;;;;;;;9.53;100.00;99741.44;6250127;28;20053;-72
2023/01/08 14:13:34;;;;;;;3.22;0.68;;;;;;;9.49;100.00;99746.03;6250311;28;20061;-72
2023/01/08 14:16:37;;;;;;;0.82;0.50;;;;;;;9.48;100.00;99746.97;6249869;28;20076;-72
2023/01/08 14:19:40;;;;;;;4.40;0.52;;;;;;;9.49;100.00;99746.03;6249840;28;20453;-72
2023/01/08 14:22:42;;;;;;;4.90;0.45;;;;;;;9.49;100.00;99730.28;6246667;28;20060;-75